Daytona Beach, FL

5:44 AM EDT on July 25, 2017 (GMT -0400)
Embry Riddle Aeronautical University WeatherSTEM | | Change Station

Elev 42 ft 29.19 °N, 81.05 °W | Updated 3 minutes ago

Scattered Clouds
Scattered Clouds
76.8 °F
Feels Like 78 °F
N
0.0
Wind Variable Wind from WNW

Today
High -- | Low -- °F
--% Chance of Precip.
Yesterday
High -- | Low -- °F
Precip. -- in
Pressure 30.08 in
Visibility 5.0 miles
Clouds Scattered Clouds 15000 ft
Scattered Clouds 25000 ft
Heat Index 78 °F
Dew Point 54 °F
Humidity 46%
Rainfall 0.00 in
Snow Depth Not available.
6:40 AM 8:20 PM
Waxing Crescent, 5% visible
METAR KDAB 250853Z 21003KT 5SM BR SCT150 SCT250 24/24 A3008 RMK AO2 SLP184 T02440244 56005
Pressure 30.08 in
Visibility 5.0 miles
Clouds Scattered Clouds 15000 ft
Scattered Clouds 25000 ft
Heat Index 78 °F
Dew Point 54 °F
Humidity 46%
Rainfall 0.00 in
Snow Depth Not available.
6:40 AM 8:20 PM
Waxing Crescent, 5% visible
METAR KDAB 250853Z 21003KT 5SM BR SCT150 SCT250 24/24 A3008 RMK AO2 SLP184 T02440244 56005

Get Severe Weather Alerts

Thanks for signing up!

Be on the lookout for a verification email in your inbox.

You'll start receiving the daily forecast at 6 AM.

×

10-Day Weather Forecast

Almanac

Astronomy

Jul. 25, 2017 Rise Set
Actual Time
Civil Twilight
Nautical Twilight
Astronomical Twilight
Moon
Length of Visible Light
Length of Day
Tomorrow will be .
, % of the Moon is Illuminated

Today's Extremes

State Highs State Lows

Community

WunderPhotos

Category 6

Welcome to Category 6. This is the collective home for Weather Underground's featured writeups by Dr. Jeff Masters (right), Bob Henson (left), Chris Burt, and other regular contributors.

Nearby

Air Quality

  Air Quality AQ Index Pollutant
Not available.

Snow Depth

Station Depth Elevation

Earthquake Activity

City Distance Mag. Time & Date
Minimum magnitude displayed is 2.5.

Coastal Water Temperatures

Place Temperature

Stations

Nearby Weather Stations

Station Location Temp. Windchill Dew Point Humidity Wind Precip. Elev Updated Type
                   

Watches & Warnings

There are currently no watches in effect.